Terminal Aerodrome Forecast
Issued by NWS New Orleans/Baton Rouge, LA

Home | Current Version | Previous Version | Text Only | Print | Product List | Glossary On
Versions: 1 2 3 4 5 6 7 8 9 10 11 12 13 14 15 16 17 18 19 20 21 22 23 24 25 26 27 28 29
000
FTUS44 KLIX 271720
TAFNEW
TAF
KNEW 271720Z 2718/2818 32005KT P6SM SKC
     FM272300 13005KT P6SM SKC
     FM280700 15008KT P6SM BKN025
     FM280800 15009KT P6SM BKN015
     FM281300 17013KT P6SM BKN015=

USA.gov is the U.S. government's official web portal to all federal, state and local government web resources and services.